Nearby METAR Reports

YMHB - Hobart/Tasmania, Australia
Distance from Franklin: NE 55km
Updated: 22/06/2018 05:30
Partly cloudy
Partly cloudy
 Wind from N
Wind: N 17 km/h
Temperature: 6°C
Wind Chill: 3°C
Dew Point: 2°C
Humidity: 76%
Barometer: 1022 hPa
Clouds: Partly cloudy
Visibility: 10 km
Cloud details: Few Clouds 1219 m
Partly cloudy 9144 m
2018/06/21 19:30 YMHB 211930Z 35009KT 9999 FEW040 SCT300 06/02 Q1022 RF00.0/000.2
YMLT - Launceston Airpo, Australia
Distance from Franklin: N 179km
Updated: 22/06/2018 06:00
Clear
Clear
 Wind from calm
Wind: Calm
Temperature: 0°C
Dew Point: 0°C
Humidity: 100%
Barometer: 1024 hPa
Clouds: Clear
Visibility: 10 km
2018/06/21 20:00 YMLT 212000Z AUTO 00000KT 9999 // NCD 00/M00 Q1024
 
YMAV - Avalon Airport, Australia
Distance from Franklin: NNW 601km
Updated: 22/06/2018 06:00
Clear
Clear
 Wind from SSE
Wind: SSE 6 km/h
Temperature: 2°C
Dew Point: 2°C
Humidity: 100%
Barometer: 1027 hPa
Clouds: Clear
Visibility: 10 km
2018/06/21 20:00 YMAV 212000Z AUTO 16003KT 9999 // NCD 02/02 Q1027
YMML - Melbourne Intl A, Australia
Distance from Franklin: NNW 631km
Updated: 22/06/2018 06:00
Clear
Clear
 Wind from N
Wind: N 17 km/h
Temperature: 4°C
Wind Chill: 0°C
Dew Point: 2°C
Humidity: 87%
Barometer: 1027 hPa
Summary: Clear
Visibility: greater than 10 km
2018/06/21 20:00 YMML 212000Z 36009KT CAVOK 04/02 Q1027